Time;durP1;ratioP1;P1;durP2;ratioP2;P2;SDS_P1;SDS_P2;PMS_P1;PMS_P2;Temp;Humidity;BMP_temperature;BMP_pressure;BME280_temperature;BME280_humidity;BME280_pressure;Samples;Min_cycle;Max_cycle;Signal;HPM_P1;HPM_P2
2021/08/01 00:01:25;;;;;;;13.03;12.33;;;17.80;99.90;;;;;;5070883;28;20467;-64
2021/08/01 00:03:52;;;;;;;12.70;12.07;;;17.80;99.90;;;;;;5063333;28;20482;-68
2021/08/01 00:06:20;;;;;;;12.57;11.73;;;17.80;99.90;;;;;;5070084;28;20849;-65
2021/08/01 00:08:47;;;;;;;12.97;12.27;;;17.80;99.90;;;;;;5070714;28;20451;-64
2021/08/01 00:11:14;;;;;;;13.13;12.30;;;17.90;99.90;;;;;;5071045;28;20460;-63
2021/08/01 00:13:40;;;;;;;13.40;12.70;;;17.90;99.90;;;;;;5071354;28;20447;-64
2021/08/01 00:16:07;;;;;;;13.60;12.80;;;17.90;99.90;;;;;;5075171;28;20954;-65
2021/08/01 00:18:34;;;;;;;14.60;13.60;;;17.90;99.90;;;;;;5077582;28;20447;-64
2021/08/01 00:21:01;;;;;;;13.90;13.20;;;17.90;99.90;;;;;;5077477;28;20850;-63
2021/08/01 00:23:29;;;;;;;15.17;14.00;;;18.00;99.90;;;;;;5077572;28;20522;-64
2021/08/01 00:25:57;;;;;;;14.37;13.37;;;18.00;99.90;;;;;;5077814;28;20938;-63
2021/08/01 00:28:23;;;;;;;15.80;14.87;;;18.00;99.90;;;;;;5077818;28;20449;-63
2021/08/01 00:30:50;;;;;;;15.80;14.80;;;17.90;99.90;;;;;;5077549;28;20470;-63
2021/08/01 00:33:17;;;;;;;15.57;14.47;;;17.90;99.90;;;;;;5077767;28;20514;-64
2021/08/01 00:35:43;;;;;;;15.33;14.43;;;18.00;99.90;;;;;;5077818;28;20462;-64
2021/08/01 00:38:10;;;;;;;16.20;15.10;;;18.00;99.90;;;;;;5077804;28;20932;-64
2021/08/01 00:40:39;;;;;;;14.57;13.70;;;18.10;99.90;;;;;;5077660;28;20470;-64
2021/08/01 00:43:05;;;;;;;15.33;14.50;;;18.10;99.90;;;;;;5077312;28;20501;-63
2021/08/01 00:45:32;;;;;;;15.77;14.77;;;18.10;99.90;;;;;;5077599;28;20482;-63
2021/08/01 00:47:58;;;;;;;16.43;15.53;;;18.10;99.90;;;;;;5077880;28;20451;-64
2021/08/01 00:50:25;;;;;;;15.83;14.83;;;18.00;99.90;;;;;;5077716;28;20470;-64
2021/08/01 00:52:53;;;;;;;15.70;14.80;;;18.00;99.90;;;;;;5077305;28;20451;-63
2021/08/01 00:55:20;;;;;;;14.90;14.10;;;18.10;99.90;;;;;;5077708;28;21003;-63
2021/08/01 00:57:48;;;;;;;16.10;14.90;;;18.10;99.90;;;;;;5077584;28;20787;-63
2021/08/01 01:00:24;;;;;;;15.90;14.80;;;18.10;99.90;;;;;;5077553;28;20466;-64
2021/08/01 01:02:55;;;;;;;15.60;14.60;;;18.00;99.90;;;;;;5077301;28;20451;-63
2021/08/01 01:05:26;;;;;;;15.40;14.40;;;17.90;99.90;;;;;;5077511;28;20479;-64
2021/08/01 01:08:00;;;;;;;16.40;15.40;;;17.90;99.90;;;;;;5077469;28;20439;-64
2021/08/01 01:10:32;;;;;;;14.50;13.63;;;17.90;99.90;;;;;;5077598;28;20466;-63
2021/08/01 01:13:10;;;;;;;14.63;13.87;;;18.00;99.90;;;;;;5077467;28;20805;-64
2021/08/01 01:15:41;;;;;;;16.23;15.13;;;18.00;99.90;;;;;;5077268;28;20439;-63
2021/08/01 01:18:11;;;;;;;14.67;13.87;;;17.90;99.90;;;;;;5077390;28;20446;-64
2021/08/01 01:21:13;;;;;;;14.43;13.73;;;17.80;99.90;;;;;;5077188;28;20471;-62
2021/08/01 01:23:43;;;;;;;14.97;13.87;;;17.80;99.90;;;;;;5077193;28;20455;-63
2021/08/01 01:26:14;;;;;;;15.50;14.50;;;17.80;99.90;;;;;;5077178;28;20443;-64
2021/08/01 01:28:48;;;;;;;14.40;13.40;;;17.80;99.90;;;;;;5073359;28;20482;-65
2021/08/01 01:31:24;;;;;;;14.47;13.43;;;17.80;99.90;;;;;;5073980;28;20467;-64
2021/08/01 01:34:00;;;;;;;15.40;14.50;;;17.80;99.90;;;;;;5054092;28;20447;-63
2021/08/01 01:36:30;;;;;;;14.13;13.23;;;17.70;99.90;;;;;;5054160;28;20442;-64
2021/08/01 01:38:58;;;;;;;14.50;13.60;;;17.70;99.90;;;;;;5054121;28;20440;-64
2021/08/01 01:41:26;;;;;;;15.47;14.47;;;17.70;99.90;;;;;;5053800;28;20452;-63
2021/08/01 01:43:54;;;;;;;14.97;14.17;;;17.60;99.90;;;;;;5057640;28;20441;-63
2021/08/01 01:46:22;;;;;;;14.57;13.57;;;17.60;99.90;;;;;;5073970;28;20439;-63
2021/08/01 01:48:50;;;;;;;15.83;14.60;;;17.60;99.90;;;;;;5074036;28;20953;-63
2021/08/01 01:51:17;;;;;;;14.60;13.60;;;17.60;99.90;;;;;;5073647;28;20475;-64
2021/08/01 01:53:46;;;;;;;14.90;13.87;;;17.60;99.90;;;;;;5073531;28;20450;-64
2021/08/01 01:56:14;;;;;;;14.07;12.97;;;17.50;99.90;;;;;;5073867;28;20436;-64
2021/08/01 01:58:41;;;;;;;14.90;14.00;;;17.60;99.90;;;;;;5073592;28;20439;-63
2021/08/01 02:01:08;;;;;;;14.30;13.43;;;17.50;99.90;;;;;;5073408;28;21045;-63
2021/08/01 02:03:35;;;;;;;13.83;12.97;;;17.60;99.90;;;;;;5073444;28;20444;-65
2021/08/01 02:06:01;;;;;;;13.80;12.90;;;17.60;99.90;;;;;;5073420;28;20479;-64
2021/08/01 02:08:45;;;;;;;13.40;12.60;;;17.60;99.90;;;;;;5073449;28;20517;-64
2021/08/01 02:11:15;;;;;;;14.30;13.40;;;17.50;99.90;;;;;;5073156;28;20844;-61
2021/08/01 02:13:48;;;;;;;15.77;14.57;;;17.40;99.90;;;;;;5073259;28;20443;-63
2021/08/01 02:16:15;;;;;;;14.43;13.40;;;17.50;99.90;;;;;;5073427;28;20439;-63
2021/08/01 02:18:49;;;;;;;14.30;13.40;;;17.50;99.90;;;;;;5073339;28;20450;-63
2021/08/01 02:21:19;;;;;;;14.70;13.70;;;17.50;99.90;;;;;;5072775;28;20514;-63
2021/08/01 02:23:47;;;;;;;14.03;13.13;;;17.40;99.90;;;;;;5072840;28;20451;-63
2021/08/01 02:26:19;;;;;;;13.53;12.70;;;17.50;99.90;;;;;;5072996;28;20560;-63
2021/08/01 02:28:46;;;;;;;14.07;13.07;;;17.50;99.90;;;;;;5073062;28;20998;-63
2021/08/01 02:31:14;;;;;;;13.27;12.07;;;17.50;99.90;;;;;;5072751;28;20459;-63
2021/08/01 02:33:42;;;;;;;13.33;12.23;;;17.60;99.90;;;;;;5072699;28;20451;-63
2021/08/01 02:36:10;;;;;;;14.73;13.53;;;17.60;99.90;;;;;;5073070;28;20442;-63
2021/08/01 02:38:39;;;;;;;12.93;12.13;;;17.50;99.90;;;;;;5072783;28;20827;-63
2021/08/01 02:41:11;;;;;;;13.30;12.30;;;17.30;99.90;;;;;;5072370;28;20456;-63
2021/08/01 02:43:40;;;;;;;13.80;12.83;;;17.30;99.90;;;;;;5072829;28;20473;-63
2021/08/01 02:46:07;;;;;;;13.10;12.00;;;17.20;99.90;;;;;;5072028;28;20479;-65
2021/08/01 02:48:35;;;;;;;13.70;12.60;;;17.10;99.90;;;;;;5072600;28;20822;-63
2021/08/01 02:51:04;;;;;;;12.23;11.20;;;17.20;99.90;;;;;;5072523;28;20459;-63
2021/08/01 02:53:35;;;;;;;12.30;11.30;;;17.20;99.90;;;;;;5072136;28;20471;-64
2021/08/01 02:56:04;;;;;;;11.17;10.40;;;17.20;99.90;;;;;;5072562;28;20435;-63
2021/08/01 02:58:32;;;;;;;11.60;10.50;;;17.20;99.90;;;;;;5072433;28;20824;-65
2021/08/01 03:01:00;;;;;;;12.77;11.87;;;17.20;99.90;;;;;;5072114;28;21107;-64
2021/08/01 03:03:28;;;;;;;15.20;14.00;;;17.20;99.90;;;;;;5072124;28;20447;-64
2021/08/01 03:05:55;;;;;;;13.27;12.07;;;17.20;99.90;;;;;;5072034;28;20479;-65
2021/08/01 03:08:22;;;;;;;13.87;12.53;;;17.20;99.90;;;;;;5071993;28;20447;-63
2021/08/01 03:10:49;;;;;;;12.67;11.67;;;17.10;99.90;;;;;;5072022;28;20467;-63
2021/08/01 03:13:16;;;;;;;13.70;12.70;;;17.20;99.90;;;;;;5072101;28;20639;-63
2021/08/01 03:15:43;;;;;;;13.40;12.23;;;17.20;99.90;;;;;;5071944;28;20458;-63
2021/08/01 03:18:11;;;;;;;13.20;12.10;;;17.10;99.90;;;;;;5072216;28;20447;-65
2021/08/01 03:20:38;;;;;;;12.73;11.63;;;17.10;99.90;;;;;;5081892;22;20830;-63
2021/08/01 03:23:05;;;;;;;12.73;11.73;;;17.10;99.90;;;;;;5051238;28;20448;-63
2021/08/01 03:25:35;;;;;;;13.13;11.93;;;17.10;99.90;;;;;;5051346;28;20480;-63
2021/08/01 03:28:02;;;;;;;12.30;11.40;;;17.10;99.90;;;;;;5051809;28;20444;-63
2021/08/01 03:30:29;;;;;;;12.30;11.40;;;17.10;99.90;;;;;;5051649;28;20464;-63
2021/08/01 03:32:56;;;;;;;12.07;10.97;;;17.00;99.90;;;;;;5051264;28;20455;-63
2021/08/01 03:35:24;;;;;;;12.50;11.70;;;16.90;99.90;;;;;;5051434;28;20460;-63
2021/08/01 03:37:51;;;;;;;12.40;11.50;;;16.90;99.90;;;;;;5051553;28;20456;-63
2021/08/01 03:40:17;;;;;;;10.93;10.00;;;16.90;99.90;;;;;;5051320;28;20468;-63
2021/08/01 03:42:45;;;;;;;10.50;9.90;;;16.90;99.90;;;;;;5051287;28;20527;-63
2021/08/01 03:45:12;;;;;;;12.40;11.50;;;16.80;99.90;;;;;;5051407;28;20487;-62
2021/08/01 03:47:39;;;;;;;11.67;10.87;;;16.90;99.90;;;;;;5051584;28;21257;-63
2021/08/01 03:50:08;;;;;;;10.60;10.00;;;16.90;99.90;;;;;;5051089;28;20475;-63
2021/08/01 03:52:36;;;;;;;10.30;9.70;;;16.90;99.90;;;;;;5050574;28;20451;-63
2021/08/01 03:55:03;;;;;;;9.77;9.17;;;16.90;99.90;;;;;;5050969;28;20919;-63
2021/08/01 03:57:30;;;;;;;10.57;9.97;;;16.90;99.90;;;;;;5051580;28;20467;-63
2021/08/01 03:59:57;;;;;;;11.10;10.30;;;16.90;99.90;;;;;;5051279;28;20451;-63
2021/08/01 04:02:23;;;;;;;11.23;10.53;;;16.90;99.90;;;;;;5049595;28;20452;-63
2021/08/01 04:04:50;;;;;;;12.47;11.50;;;16.90;99.90;;;;;;5051261;28;20451;-64
2021/08/01 04:07:17;;;;;;;10.63;9.93;;;16.80;99.90;;;;;;5051269;28;20451;-63
2021/08/01 04:09:45;;;;;;;10.83;10.13;;;16.80;99.90;;;;;;5051525;28;20448;-63
2021/08/01 04:12:12;;;;;;;11.77;10.87;;;16.70;99.90;;;;;;5051750;28;20444;-65
2021/08/01 04:14:38;;;;;;;11.40;10.70;;;16.60;99.90;;;;;;5051356;28;20443;-63
2021/08/01 04:17:07;;;;;;;10.87;10.27;;;16.60;99.90;;;;;;5051225;28;20479;-65
2021/08/01 04:19:33;;;;;;;12.50;11.70;;;16.60;99.90;;;;;;5051398;28;20452;-64
2021/08/01 04:22:00;;;;;;;12.13;11.00;;;16.40;99.90;;;;;;5050467;28;20475;-67
2021/08/01 04:24:27;;;;;;;12.50;11.50;;;16.40;99.90;;;;;;5051144;28;20447;-63
2021/08/01 04:26:56;;;;;;;11.70;10.57;;;16.40;99.90;;;;;;5051228;28;20475;-64
2021/08/01 04:29:22;;;;;;;11.70;10.90;;;16.40;99.90;;;;;;5051309;28;20809;-65
2021/08/01 04:31:49;;;;;;;12.03;11.23;;;16.30;99.90;;;;;;5050492;28;20467;-62
2021/08/01 04:34:17;;;;;;;12.90;11.60;;;16.30;99.90;;;;;;5051221;28;20444;-64
2021/08/01 04:36:43;;;;;;;14.70;13.50;;;16.20;99.90;;;;;;5051082;28;20448;-62
2021/08/01 04:39:10;;;;;;;14.67;13.30;;;16.20;99.90;;;;;;5051150;28;20939;-63
2021/08/01 04:41:37;;;;;;;13.00;12.00;;;16.20;99.90;;;;;;5051396;28;20475;-65
2021/08/01 04:44:06;;;;;;;12.43;11.40;;;16.20;99.90;;;;;;5050755;28;20452;-63
2021/08/01 04:46:33;;;;;;;13.73;12.20;;;16.10;99.90;;;;;;5050865;28;20491;-64
2021/08/01 04:49:00;;;;;;;15.10;13.57;;;16.20;99.90;;;;;;5051038;28;20531;-64
2021/08/01 04:51:26;;;;;;;17.20;15.37;;;16.20;99.90;;;;;;5050490;28;20468;-63
2021/08/01 04:53:53;;;;;;;14.47;13.10;;;16.10;99.90;;;;;;5049872;28;20451;-65
2021/08/01 04:56:20;;;;;;;19.80;13.20;;;16.00;99.90;;;;;;5051083;28;20974;-64
2021/08/01 04:58:47;;;;;;;14.90;12.80;;;16.00;99.90;;;;;;5050979;28;20451;-63
2021/08/01 05:01:17;;;;;;;18.73;15.20;;;16.00;99.90;;;;;;5050570;28;20469;-63
2021/08/01 05:03:43;;;;;;;16.70;13.20;;;16.10;99.90;;;;;;5053732;28;20822;-64
2021/08/01 05:06:10;;;;;;;15.93;14.33;;;16.20;99.90;;;;;;5054686;28;20863;-65
2021/08/01 05:08:37;;;;;;;18.50;14.57;;;16.30;99.90;;;;;;5054583;28;20530;-62
2021/08/01 05:11:04;;;;;;;17.77;16.17;;;16.30;99.90;;;;;;5054379;28;20468;-62
2021/08/01 05:13:31;;;;;;;18.83;16.93;;;16.20;99.90;;;;;;5054432;28;20448;-62
2021/08/01 05:15:57;;;;;;;17.10;15.47;;;16.20;99.90;;;;;;5054383;28;20440;-62
2021/08/01 05:18:25;;;;;;;16.03;14.33;;;16.20;99.90;;;;;;5054665;28;20462;-60
2021/08/01 05:20:52;;;;;;;20.33;15.20;;;16.10;99.90;;;;;;5054300;28;20483;-61
2021/08/01 05:23:19;;;;;;;16.23;14.53;;;16.00;99.90;;;;;;5054108;28;20452;-60
2021/08/01 05:25:46;;;;;;;19.67;16.50;;;16.00;99.90;;;;;;5054588;28;20490;-61
2021/08/01 05:28:12;;;;;;;17.93;16.20;;;16.00;99.90;;;;;;5054483;28;20451;-61
2021/08/01 05:30:39;;;;;;;19.73;16.00;;;15.90;99.90;;;;;;5055272;28;20467;-62
2021/08/01 05:33:06;;;;;;;14.53;13.00;;;15.90;99.90;;;;;;5054524;28;20455;-62
2021/08/01 05:35:36;;;;;;;17.90;16.00;;;15.90;99.90;;;;;;5054566;28;20471;-62
2021/08/01 05:38:03;;;;;;;14.30;13.00;;;15.90;99.90;;;;;;5054308;28;20448;-61
2021/08/01 05:40:30;;;;;;;14.60;13.10;;;15.90;99.90;;;;;;5054243;28;20464;-61
2021/08/01 05:42:59;;;;;;;14.70;13.20;;;15.90;99.90;;;;;;5053964;28;20447;-62
2021/08/01 05:45:26;;;;;;;21.23;13.40;;;15.90;99.90;;;;;;5053968;28;20806;-62
2021/08/01 05:47:53;;;;;;;13.67;12.27;;;15.90;99.90;;;;;;5054214;28;20444;-62
2021/08/01 05:50:20;;;;;;;12.40;11.30;;;16.00;99.90;;;;;;5054098;28;20471;-61
2021/08/01 05:52:48;;;;;;;13.20;11.80;;;16.00;99.90;;;;;;5053962;28;20449;-62
2021/08/01 05:55:15;;;;;;;13.30;12.10;;;16.10;99.90;;;;;;5054368;28;20443;-60
2021/08/01 05:57:41;;;;;;;13.77;12.57;;;16.20;99.90;;;;;;5054433;28;20460;-62
2021/08/01 06:00:09;;;;;;;12.53;11.00;;;16.30;99.90;;;;;;5054168;28;20539;-59
2021/08/01 06:02:35;;;;;;;12.67;11.63;;;16.40;99.90;;;;;;5053508;28;20451;-60
2021/08/01 06:05:02;;;;;;;18.33;11.33;;;16.40;99.90;;;;;;5053926;28;20447;-62
2021/08/01 06:07:30;;;;;;;10.93;10.00;;;16.60;99.90;;;;;;5050256;28;20483;-62
2021/08/01 06:09:58;;;;;;;13.73;12.07;;;16.60;99.90;;;;;;5042164;28;20452;-62
2021/08/01 06:12:24;;;;;;;13.67;12.27;;;16.70;99.90;;;;;;5041795;28;20451;-61
2021/08/01 06:14:51;;;;;;;11.60;10.70;;;16.70;99.90;;;;;;5042176;28;20448;-62
2021/08/01 06:17:19;;;;;;;19.27;11.67;;;16.70;99.90;;;;;;5042463;28;21182;-62
2021/08/01 06:19:46;;;;;;;12.23;11.30;;;16.90;99.90;;;;;;5042396;28;20459;-62
2021/08/01 06:22:14;;;;;;;12.83;11.77;;;16.90;99.90;;;;;;5042505;28;20456;-62
2021/08/01 06:24:41;;;;;;;12.60;11.70;;;17.00;99.90;;;;;;5042636;28;20549;-62
2021/08/01 06:27:10;;;;;;;13.97;13.17;;;17.10;99.90;;;;;;5042520;28;20606;-61
2021/08/01 06:29:37;;;;;;;13.90;12.90;;;17.10;99.90;;;;;;5042067;28;20456;-62
2021/08/01 06:32:04;;;;;;;14.07;12.93;;;17.10;99.90;;;;;;5042085;28;20487;-62
2021/08/01 06:34:31;;;;;;;13.67;12.57;;;17.20;99.90;;;;;;5042620;28;20451;-62
2021/08/01 06:36:57;;;;;;;12.67;11.83;;;17.30;99.90;;;;;;5042777;28;20448;-63
2021/08/01 06:39:24;;;;;;;15.00;13.60;;;17.40;99.90;;;;;;5043141;28;20497;-62
2021/08/01 06:41:51;;;;;;;14.37;13.30;;;17.50;99.90;;;;;;5042960;28;20475;-62
2021/08/01 06:44:20;;;;;;;14.30;13.27;;;17.60;99.90;;;;;;5042443;28;20495;-62
2021/08/01 06:46:47;;;;;;;14.77;13.60;;;17.70;99.90;;;;;;5042744;28;20520;-63
2021/08/01 06:49:14;;;;;;;15.40;14.13;;;17.80;99.90;;;;;;5042179;28;20467;-62
2021/08/01 06:51:40;;;;;;;14.60;13.63;;;17.70;99.90;;;;;;5041560;28;20475;-63
2021/08/01 06:54:07;;;;;;;16.10;14.93;;;17.80;99.90;;;;;;5044491;28;20947;-63
2021/08/01 06:56:34;;;;;;;14.53;13.63;;;17.80;99.90;;;;;;5042893;28;20448;-62
2021/08/01 06:59:01;;;;;;;15.50;14.57;;;17.80;99.90;;;;;;5043420;28;20444;-62
2021/08/01 07:01:30;;;;;;;15.13;14.00;;;17.90;99.90;;;;;;5041505;28;20464;-62
2021/08/01 07:03:57;;;;;;;15.30;14.50;;;17.80;99.90;;;;;;5042810;28;21214;-62
2021/08/01 07:06:24;;;;;;;15.23;14.17;;;17.80;99.90;;;;;;5042343;28;20846;-62
2021/08/01 07:08:51;;;;;;;14.60;13.80;;;17.90;99.90;;;;;;5041541;28;21274;-62
2021/08/01 07:11:18;;;;;;;14.73;13.53;;;18.00;99.90;;;;;;5041942;28;20549;-61
2021/08/01 07:13:45;;;;;;;15.77;14.97;;;18.10;99.90;;;;;;5042049;28;20448;-62
2021/08/01 07:16:12;;;;;;;14.77;13.83;;;18.20;99.90;;;;;;5042086;28;20459;-62
2021/08/01 07:18:41;;;;;;;15.43;14.37;;;18.20;99.90;;;;;;5041897;28;20774;-62
2021/08/01 07:21:07;;;;;;;15.37;14.43;;;18.30;99.90;;;;;;5041209;28;20480;-60
2021/08/01 07:23:34;;;;;;;15.33;14.43;;;18.30;99.90;;;;;;5040528;28;20448;-60
2021/08/01 07:26:01;;;;;;;16.27;14.77;;;18.50;99.90;;;;;;5039868;28;20541;-63
2021/08/01 07:28:29;;;;;;;16.00;15.10;;;18.70;99.90;;;;;;5041117;28;21025;-61
2021/08/01 07:30:56;;;;;;;15.90;15.20;;;19.00;99.90;;;;;;5041768;28;20472;-62
2021/08/01 07:33:23;;;;;;;17.40;16.40;;;19.20;99.90;;;;;;5042869;28;20445;-61
2021/08/01 07:35:51;;;;;;;16.40;15.30;;;19.50;99.90;;;;;;5034533;28;20452;-60
2021/08/01 07:38:17;;;;;;;16.53;15.43;;;19.80;99.90;;;;;;5042398;28;20904;-61
2021/08/01 07:40:44;;;;;;;15.30;14.70;;;19.80;99.90;;;;;;5043600;28;20977;-62
2021/08/01 07:43:11;;;;;;;17.33;15.70;;;19.40;99.90;;;;;;5042350;28;21059;-61
2021/08/01 07:45:37;;;;;;;17.90;16.93;;;19.30;99.90;;;;;;5041871;28;20464;-62
2021/08/01 07:48:05;;;;;;;17.17;16.17;;;19.30;99.90;;;;;;5042453;28;20488;-61
2021/08/01 07:50:32;;;;;;;16.30;15.30;;;19.40;99.90;;;;;;5042163;28;20475;-63
2021/08/01 07:53:00;;;;;;;16.27;15.43;;;19.40;99.90;;;;;;5042178;28;20448;-62
2021/08/01 07:55:26;;;;;;;16.53;15.43;;;19.50;99.90;;;;;;5042159;28;20452;-61
2021/08/01 07:57:55;;;;;;;16.70;15.80;;;19.90;99.90;;;;;;5043296;28;20455;-61
2021/08/01 08:00:22;;;;;;;16.60;15.60;;;20.40;99.90;;;;;;5042216;28;20502;-61
2021/08/01 08:02:49;;;;;;;17.60;16.30;;;20.70;99.90;;;;;;5042091;28;20444;-62
2021/08/01 08:05:16;;;;;;;17.20;16.13;;;20.60;99.90;;;;;;5042923;28;20447;-62
2021/08/01 08:07:42;;;;;;;17.40;16.30;;;20.70;99.90;;;;;;5043129;28;21108;-62
2021/08/01 08:10:12;;;;;;;16.57;15.67;;;21.00;99.90;;;;;;5043582;28;20483;-62
2021/08/01 08:12:39;;;;;;;18.70;17.33;;;21.20;99.90;;;;;;5043731;28;20482;-62
2021/08/01 08:15:07;;;;;;;17.30;16.40;;;21.40;99.90;;;;;;5043133;28;20497;-62
2021/08/01 08:17:34;;;;;;;16.60;15.60;;;21.30;99.90;;;;;;5043114;28;20781;-62
2021/08/01 08:20:02;;;;;;;18.37;17.20;;;21.30;99.90;;;;;;5042924;28;20958;-62
2021/08/01 08:22:28;;;;;;;21.83;19.63;;;21.40;99.90;;;;;;5043125;28;20452;-61
2021/08/01 08:24:55;;;;;;;17.27;16.20;;;21.30;99.90;;;;;;5040570;28;20455;-61
2021/08/01 08:27:23;;;;;;;16.90;15.90;;;21.30;99.90;;;;;;5039865;28;20486;-61
2021/08/01 08:29:50;;;;;;;16.67;15.77;;;21.40;99.90;;;;;;5041001;28;20825;-63
2021/08/01 08:32:17;;;;;;;17.07;16.27;;;21.60;99.90;;;;;;5040636;28;20444;-63
2021/08/01 08:34:44;;;;;;;18.90;17.50;;;21.40;99.90;;;;;;5040521;28;20947;-64
2021/08/01 08:37:10;;;;;;;17.67;16.77;;;21.50;99.90;;;;;;5042581;28;20491;-63
2021/08/01 08:39:37;;;;;;;17.73;16.83;;;21.30;99.90;;;;;;5044141;28;21072;-62
2021/08/01 08:42:05;;;;;;;17.57;16.70;;;21.50;99.90;;;;;;5044635;28;20472;-63
2021/08/01 08:44:36;;;;;;;18.57;17.47;;;21.60;99.90;;;;;;5044697;28;20452;-63
2021/08/01 08:47:04;;;;;;;18.27;17.37;;;21.50;99.90;;;;;;5043527;28;20484;-63
2021/08/01 08:49:36;;;;;;;18.23;17.13;;;21.40;99.90;;;;;;5044110;28;20463;-63
2021/08/01 08:52:07;;;;;;;18.97;17.77;;;21.30;99.90;;;;;;5043499;28;20483;-63
2021/08/01 08:54:39;;;;;;;19.13;18.13;;;21.50;99.90;;;;;;5024278;28;20871;-63
2021/08/01 08:57:15;;;;;;;17.57;16.67;;;21.40;99.90;;;;;;5027340;28;20448;-63
2021/08/01 08:59:45;;;;;;;18.00;16.90;;;21.70;99.90;;;;;;5043522;28;20440;-63
2021/08/01 09:02:14;;;;;;;16.77;16.13;;;22.00;99.90;;;;;;5043783;28;20447;-63
2021/08/01 09:04:43;;;;;;;18.90;17.83;;;22.00;99.90;;;;;;5043655;28;20448;-64
2021/08/01 09:07:10;;;;;;;18.67;17.87;;;21.60;99.90;;;;;;5043270;28;20487;-63
2021/08/01 09:09:37;;;;;;;16.70;15.90;;;21.00;99.90;;;;;;5043436;28;20459;-63
2021/08/01 09:12:04;;;;;;;18.10;17.10;;;21.10;99.90;;;;;;5043100;28;20468;-62
2021/08/01 09:14:31;;;;;;;17.40;16.40;;;21.00;99.90;;;;;;5043343;28;20452;-64
2021/08/01 09:16:59;;;;;;;18.43;17.53;;;21.10;99.90;;;;;;5043909;28;20444;-63
2021/08/01 09:19:28;;;;;;;16.60;15.90;;;21.50;99.90;;;;;;5044841;28;20935;-67
2021/08/01 09:22:10;;;;;;;16.77;15.90;;;22.00;99.90;;;;;;5043782;28;20468;-62
2021/08/01 09:24:37;;;;;;;17.03;16.03;;;22.50;99.70;;;;;;5042985;28;20459;-63
2021/08/01 09:27:05;;;;;;;17.87;16.67;;;22.50;98.50;;;;;;5042551;28;20498;-63
2021/08/01 09:29:33;;;;;;;17.40;16.60;;;22.40;98.50;;;;;;5042599;28;20463;-63
2021/08/01 09:32:03;;;;;;;17.43;16.43;;;22.70;97.60;;;;;;5042302;28;20499;-63
2021/08/01 09:34:30;;;;;;;17.63;16.90;;;23.00;96.30;;;;;;5042370;28;20491;-63
2021/08/01 09:37:02;;;;;;;17.03;16.03;;;23.10;96.60;;;;;;5042858;28;20448;-63
2021/08/01 09:39:29;;;;;;;16.93;16.17;;;23.10;96.10;;;;;;5042881;28;20573;-63
2021/08/01 09:42:04;;;;;;;15.90;15.20;;;23.10;95.30;;;;;;5042399;28;20476;-63
2021/08/01 09:44:31;;;;;;;16.70;15.80;;;23.00;94.20;;;;;;5042346;28;20439;-63
2021/08/01 09:46:58;;;;;;;16.10;15.37;;;23.10;94.00;;;;;;5042105;28;20483;-63
2021/08/01 09:49:28;;;;;;;16.88;16.17;;;23.20;94.00;;;;;;5040970;28;20471;-63
2021/08/01 09:51:57;;;;;;;16.93;16.07;;;23.40;94.00;;;;;;5041790;28;20213;-63
2021/08/01 09:54:26;;;;;;;17.60;16.87;;;23.70;93.10;;;;;;5042311;28;21258;-62
2021/08/01 09:56:55;;;;;;;17.27;16.47;;;24.10;91.90;;;;;;5043404;28;20440;-63
2021/08/01 09:59:23;;;;;;;16.77;16.17;;;24.00;90.40;;;;;;5043307;28;20452;-63
2021/08/01 10:01:51;;;;;;;17.27;16.47;;;24.00;90.90;;;;;;5043281;28;20476;-63
2021/08/01 10:04:27;;;;;;;17.30;16.30;;;23.70;90.50;;;;;;5043250;28;20459;-63
2021/08/01 10:07:09;;;;;;;16.60;15.97;;;23.50;91.40;;;;;;5043593;28;21143;-63
2021/08/01 10:09:37;;;;;;;18.60;17.40;;;23.70;92.00;;;;;;5043649;28;20452;-61
2021/08/01 10:12:05;;;;;;;16.40;15.70;;;23.80;90.80;;;;;;5044943;28;20467;-63
2021/08/01 10:14:32;;;;;;;17.43;16.63;;;23.70;91.40;;;;;;5045000;28;21314;-63
2021/08/01 10:16:59;;;;;;;16.37;15.60;;;23.50;92.00;;;;;;5044138;28;20444;-64
2021/08/01 10:19:28;;;;;;;15.90;15.20;;;23.40;91.90;;;;;;5044642;28;20490;-63
2021/08/01 10:21:58;;;;;;;17.07;16.20;;;23.40;92.20;;;;;;5042714;28;20482;-63
2021/08/01 10:24:26;;;;;;;16.70;15.90;;;23.00;92.60;;;;;;5023522;28;20544;-61
2021/08/01 10:26:54;;;;;;;17.10;16.40;;;23.10;93.40;;;;;;5023707;28;20452;-63
2021/08/01 10:29:32;;;;;;;16.80;16.00;;;23.10;92.80;;;;;;5021938;28;20457;-62
2021/08/01 10:32:05;;;;;;;17.30;16.50;;;23.50;92.40;;;;;;5025793;28;20467;-63
2021/08/01 10:34:50;;;;;;;16.80;16.00;;;23.40;91.80;;;;;;5041979;28;20448;-62
2021/08/01 10:37:22;;;;;;;17.10;16.00;;;23.10;91.70;;;;;;5041586;28;20928;-63
2021/08/01 10:39:49;;;;;;;17.90;17.10;;;23.00;93.50;;;;;;5041538;28;20480;-62
2021/08/01 10:42:20;;;;;;;17.87;16.63;;;23.20;93.90;;;;;;5042053;28;20460;-62
2021/08/01 10:44:48;;;;;;;17.53;16.83;;;23.80;93.40;;;;;;5044193;28;21098;-62
2021/08/01 10:47:16;;;;;;;17.33;16.43;;;23.80;91.60;;;;;;5041899;28;20494;-62
2021/08/01 10:49:48;;;;;;;16.90;16.03;;;23.70;91.60;;;;;;5043682;28;20444;-62
2021/08/01 10:52:18;;;;;;;17.60;16.80;;;24.20;90.30;;;;;;5042869;28;20576;-62
2021/08/01 10:54:56;;;;;;;18.00;16.80;;;25.00;87.30;;;;;;5044530;28;20447;-62
2021/08/01 10:57:24;;;;;;;18.83;18.10;;;25.50;83.80;;;;;;5043148;28;20535;-62
2021/08/01 11:00:10;;;;;;;18.43;17.67;;;25.10;82.10;;;;;;5042546;28;20463;-61
2021/08/01 11:02:38;;;;;;;16.60;15.83;;;24.90;82.80;;;;;;5041675;28;20794;-62
2021/08/01 11:05:41;;;;;;;16.07;15.47;;;25.00;84.00;;;;;;5041821;28;20446;-62
2021/08/01 11:08:10;;;;;;;17.37;16.40;;;25.20;83.70;;;;;;5041067;28;20476;-62
2021/08/01 11:10:39;;;;;;;17.70;17.10;;;25.80;82.00;;;;;;5040873;28;20468;-62
2021/08/01 11:13:39;;;;;;;18.03;16.97;;;25.90;78.20;;;;;;5040992;28;20943;-61
2021/08/01 11:16:08;;;;;;;17.10;16.10;;;26.40;77.30;;;;;;5041191;28;20452;-61
2021/08/01 11:18:40;;;;;;;18.07;17.30;;;26.50;74.50;;;;;;5040877;28;20522;-59
2021/08/01 11:21:12;;;;;;;16.90;16.20;;;26.60;75.20;;;;;;5040067;28;21433;-62
2021/08/01 11:24:05;;;;;;;18.03;17.23;;;26.40;73.70;;;;;;5040534;28;20444;-62
2021/08/01 11:26:33;;;;;;;17.87;17.13;;;27.00;72.10;;;;;;5041543;28;20534;-63
2021/08/01 11:29:09;;;;;;;17.47;16.67;;;27.60;67.80;;;;;;5040689;28;20494;-60
2021/08/01 11:31:37;;;;;;;17.43;16.70;;;26.70;67.40;;;;;;5040798;28;20467;-62
2021/08/01 11:34:22;;;;;;;19.00;18.00;;;25.80;71.20;;;;;;5040512;28;21306;-61
2021/08/01 11:36:50;;;;;;;18.70;17.80;;;25.80;71.10;;;;;;5040097;28;20444;-62
2021/08/01 11:39:18;;;;;;;18.17;17.30;;;26.30;69.60;;;;;;5020435;28;20437;-59
2021/08/01 11:41:48;;;;;;;17.40;16.70;;;26.70;68.20;;;;;;5020031;28;20469;-61
2021/08/01 11:44:22;;;;;;;18.30;17.60;;;26.30;66.30;;;;;;5026919;28;20463;-63
2021/08/01 11:47:00;;;;;;;18.50;17.70;;;28.30;64.50;;;;;;5040625;28;20540;-62
2021/08/01 11:49:29;;;;;;;18.63;18.00;;;30.80;58.10;;;;;;5040416;28;20483;-61
2021/08/01 11:51:58;;;;;;;17.93;17.27;;;32.10;51.20;;;;;;5039717;28;20492;-60
2021/08/01 11:54:30;;;;;;;20.07;19.27;;;33.30;49.20;;;;;;5040291;28;20452;-62
2021/08/01 11:56:59;;;;;;;18.53;17.93;;;33.80;46.30;;;;;;5040089;28;20878;-62
2021/08/01 11:59:27;;;;;;;20.00;19.17;;;34.90;43.90;;;;;;5039998;28;20447;-60
2021/08/01 12:01:55;;;;;;;19.17;18.27;;;37.10;40.20;;;;;;5039665;28;20213;-61
2021/08/01 12:04:22;;;;;;;19.25;18.55;;;37.60;37.40;;;;;;5039812;28;20287;-63
2021/08/01 12:06:51;;;;;;;19.13;18.33;;;37.30;36.80;;;;;;5040180;28;20223;-62
2021/08/01 12:09:20;;;;;;;19.83;19.08;;;39.80;34.80;;;;;;5040080;28;20236;-62
2021/08/01 12:11:50;;;;;;;18.80;18.08;;;40.50;31.90;;;;;;5039379;28;20220;-63
2021/08/01 12:14:22;;;;;;;19.58;18.88;;;42.80;31.00;;;;;;5039750;28;20310;-62
2021/08/01 12:16:58;;;;;;;19.33;18.52;;;42.00;28.80;;;;;;5040409;28;20875;-63
2021/08/01 12:19:27;;;;;;;19.63;18.83;;;40.50;29.00;;;;;;5039637;28;20662;-63
2021/08/01 12:21:57;;;;;;;19.85;19.15;;;41.10;29.40;;;;;;5039247;28;20235;-63
2021/08/01 12:24:38;;;;;;;21.15;20.35;;;43.00;28.70;;;;;;5039978;28;20224;-63
2021/08/01 12:27:10;;;;;;;19.35;18.65;;;45.00;27.20;;;;;;5039703;28;20244;-63
2021/08/01 12:29:41;;;;;;;19.60;18.80;;;42.00;27.50;;;;;;5039871;28;20221;-64
2021/08/01 12:32:29;;;;;;;19.27;18.58;;;41.60;29.10;;;;;;5037830;28;20219;-63
2021/08/01 12:35:08;;;;;;;20.33;19.52;;;43.30;27.80;;;;;;5031260;28;20212;-62
2021/08/01 12:37:57;;;;;;;20.10;19.20;;;41.30;27.40;;;;;;5039719;28;20559;-63